Time;durP1;ratioP1;P1;durP2;ratioP2;P2;SDS_P1;SDS_P2;PMS_P1;PMS_P2;Temp;Humidity;BMP_temperature;BMP_pressure;BME280_temperature;BME280_humidity;BME280_pressure;Samples;Min_cycle;Max_cycle;Signal;HPM_P1;HPM_P2
2022/01/11 00:00:23;;;;;;;;;;;5.40;99.90;;;;;;5057020;28;19913;-49
2022/01/11 00:02:51;;;;;;;;;;;5.30;99.90;;;;;;5055694;28;20285;-47
2022/01/11 00:05:35;;;;;;;;;;;5.30;99.90;;;;;;5057131;28;20333;-45
2022/01/11 00:08:02;;;;;;;;;;;5.30;99.90;;;;;;5049685;28;20217;-47
2022/01/11 00:10:38;;;;;;;;;;;5.30;99.90;;;;;;5056478;28;19917;-47
2022/01/11 00:13:05;;;;;;;;;;;5.30;99.90;;;;;;5057730;28;20332;-45
2022/01/11 00:15:32;;;;;;;;;;;5.30;99.90;;;;;;5057149;28;19913;-46
2022/01/11 00:17:59;;;;;;;;;;;5.30;99.90;;;;;;5057021;28;19909;-45
2022/01/11 00:20:28;;;;;;;;;;;5.30;99.90;;;;;;5038846;28;19917;-46
2022/01/11 00:25:36;;;;;;;;;;;5.30;99.90;;;;;;5056716;28;19970;-48
2022/01/11 00:28:03;;;;;;;;;;;5.20;99.90;;;;;;5078647;28;19973;-47
2022/01/11 00:30:33;;;;;;;;;;;5.30;99.90;;;;;;5077593;28;19909;-45
2022/01/11 00:33:04;;;;;;;;;;;5.20;99.90;;;;;;5076659;28;19925;-46
2022/01/11 00:35:40;;;;;;;;;;;5.20;99.90;;;;;;5044308;28;20015;-46
2022/01/11 00:38:07;;;;;;;;;;;5.20;99.90;;;;;;5057208;28;19963;-46
2022/01/11 00:40:35;;;;;;;;;;;5.20;99.90;;;;;;5056271;28;19951;-47
2022/01/11 00:43:04;;;;;;;;;;;5.20;99.90;;;;;;5055811;28;20339;-48
2022/01/11 00:45:30;;;;;;;;;;;5.20;99.90;;;;;;5056028;28;20195;-48
2022/01/11 00:47:57;;;;;;;;;;;5.20;99.90;;;;;;5055311;28;19920;-53
2022/01/11 00:50:25;;;;;;;;;;;5.10;99.90;;;;;;5056416;28;19932;-46
2022/01/11 00:52:51;;;;;;;;;;;5.10;99.90;;;;;;5056668;28;19916;-49
2022/01/11 00:55:17;;;;;;;;;;;5.10;99.90;;;;;;5056239;28;20224;-48
2022/01/11 00:57:44;;;;;;;;;;;5.10;99.90;;;;;;5055469;28;20285;-51
2022/01/11 01:00:12;;;;;;;;;;;5.10;99.90;;;;;;5055145;28;19915;-46
2022/01/11 01:02:37;;;;;;;;;;;5.00;99.90;;;;;;5042140;28;20313;-46
2022/01/11 01:05:04;;;;;;;;;;;5.00;99.90;;;;;;5036299;28;19920;-47
2022/01/11 01:07:29;;;;;;;;;;;5.00;99.90;;;;;;5034931;28;20529;-46
2022/01/11 01:10:13;;;;;;;;;;;4.90;99.90;;;;;;5053739;28;20019;-49
2022/01/11 01:12:40;;;;;;;;;;;4.90;99.90;;;;;;5055353;28;19961;-47
2022/01/11 01:15:07;;;;;;;;;;;4.80;99.90;;;;;;5055508;28;19993;-49
2022/01/11 01:17:33;;;;;;;;;;;4.90;99.90;;;;;;5055241;28;19988;-46
2022/01/11 01:20:00;;;;;;;;;;;5.00;99.90;;;;;;5054565;28;19960;-47
2022/01/11 01:22:27;;;;;;;;;;;4.90;99.90;;;;;;5055527;28;19924;-45
2022/01/11 01:24:54;;;;;;;;;;;4.90;99.90;;;;;;5055767;28;19912;-47
2022/01/11 01:27:21;;;;;;;;;;;4.90;99.90;;;;;;5055593;28;19920;-45
2022/01/11 01:30:06;;;;;;;;;;;4.90;99.90;;;;;;5055705;28;19909;-48
2022/01/11 01:32:32;;;;;;;;;;;5.00;99.90;;;;;;5056465;28;19974;-48
2022/01/11 01:35:03;;;;;;;;;;;5.00;99.90;;;;;;5055361;28;19987;-46
2022/01/11 01:37:31;;;;;;;;;;;5.00;99.90;;;;;;5056119;28;19919;-46
2022/01/11 01:39:57;;;;;;;;;;;5.00;99.90;;;;;;5056074;28;19991;-46
2022/01/11 01:42:27;;;;;;;;;;;5.00;99.90;;;;;;5055536;28;19971;-46
2022/01/11 01:44:53;;;;;;;;;;;5.00;99.90;;;;;;5056592;28;20289;-49
2022/01/11 01:47:19;;;;;;;;;;;4.90;99.90;;;;;;5055394;28;20351;-48
2022/01/11 01:49:45;;;;;;;;;;;4.90;99.90;;;;;;5055146;28;19974;-46
2022/01/11 01:52:14;;;;;;;;;;;4.90;99.90;;;;;;5055081;28;19952;-45
2022/01/11 01:54:41;;;;;;;;;;;4.80;99.90;;;;;;5055229;28;19923;-48
2022/01/11 01:57:08;;;;;;;;;;;4.80;99.90;;;;;;5055713;28;19909;-46
2022/01/11 01:59:34;;;;;;;;;;;4.80;99.90;;;;;;5055298;28;20344;-46
2022/01/11 02:02:01;;;;;;;;;;;4.80;99.90;;;;;;5054815;28;20004;-48
2022/01/11 02:04:28;;;;;;;;;;;4.80;99.90;;;;;;5055642;28;19909;-46
2022/01/11 02:06:54;;;;;;;;;;;4.80;99.90;;;;;;5056230;28;19913;-47
2022/01/11 02:09:20;;;;;;;;;;;4.80;99.90;;;;;;5055437;28;19919;-47
2022/01/11 02:11:47;;;;;;;;;;;4.80;99.90;;;;;;5054111;28;19956;-48
2022/01/11 02:14:13;;;;;;;;;;;4.80;99.90;;;;;;5053731;28;19943;-52
2022/01/11 02:16:39;;;;;;;;;;;4.80;99.90;;;;;;5053441;28;19913;-46
2022/01/11 02:19:05;;;;;;;;;;;4.80;99.90;;;;;;5055166;28;20163;-44
2022/01/11 02:21:32;;;;;;;;;;;4.90;99.90;;;;;;5056167;28;19939;-47
2022/01/11 02:23:59;;;;;;;;;;;4.90;99.90;;;;;;5055681;28;19920;-44
2022/01/11 02:26:26;;;;;;;;;;;4.80;99.90;;;;;;5055844;28;19912;-46
2022/01/11 02:28:53;;;;;;;;;;;4.80;99.90;;;;;;5055728;28;19913;-45
2022/01/11 02:31:20;;;;;;;;;;;4.80;99.90;;;;;;5055589;28;20274;-44
2022/01/11 02:33:48;;;;;;;;;;;4.80;99.90;;;;;;5055053;28;19921;-47
2022/01/11 02:36:21;;;;;;;;;;;4.80;99.90;;;;;;5054820;28;19912;-50
2022/01/11 02:38:49;;;;;;;;;;;4.80;99.90;;;;;;5055222;28;19952;-44
2022/01/11 02:41:16;;;;;;;;;;;4.80;99.90;;;;;;5054784;28;19923;-46
2022/01/11 02:43:42;;;;;;;;;;;4.80;99.90;;;;;;5088273;28;19913;-45
2022/01/11 02:46:09;;;;;;;;;;;4.80;99.90;;;;;;5057627;28;19909;-50
2022/01/11 02:48:35;;;;;;;;;;;4.70;99.90;;;;;;5059120;28;19974;-47
2022/01/11 02:51:03;;;;;;;;;;;4.80;99.90;;;;;;5059385;28;19913;-48
2022/01/11 02:53:29;;;;;;;;;;;4.80;99.90;;;;;;5042307;28;19952;-46
2022/01/11 02:55:56;;;;;;;;;;;4.80;99.90;;;;;;5058539;28;19916;-48
2022/01/11 02:58:22;;;;;;;;;;;4.80;99.90;;;;;;5058705;28;19909;-47
2022/01/11 03:01:02;;;;;;;;;;;4.80;99.90;;;;;;5059294;28;20184;-45
2022/01/11 03:03:33;;;;;;;;;;;4.80;99.90;;;;;;5059766;28;20200;-45
2022/01/11 03:06:02;;;;;;;;;;;4.80;99.90;;;;;;5059114;28;19917;-48
2022/01/11 03:08:30;;;;;;;;;;;4.80;99.90;;;;;;5058851;28;19995;-52
2022/01/11 03:10:57;;;;;;;;;;;4.80;99.90;;;;;;5058498;28;19920;-45
2022/01/11 03:13:24;;;;;;;;;;;4.80;99.90;;;;;;5060093;28;19967;-48
2022/01/11 03:15:52;;;;;;;;;;;4.80;99.90;;;;;;5058896;28;20186;-45
2022/01/11 03:18:20;;;;;;;;;;;4.70;99.90;;;;;;5057820;28;20253;-47
2022/01/11 03:20:48;;;;;;;;;;;4.70;99.90;;;;;;5057810;28;19990;-45
2022/01/11 03:23:16;;;;;;;;;;;4.70;99.90;;;;;;5040966;28;19924;-49
2022/01/11 03:25:51;;;;;;;;;;;4.70;99.90;;;;;;5059027;28;19981;-49
2022/01/11 03:28:19;;;;;;;;;;;4.70;99.90;;;;;;5072481;28;19974;-47
2022/01/11 03:30:46;;;;;;;;;;;4.70;99.90;;;;;;5058616;28;19916;-45
2022/01/11 03:33:13;;;;;;;;;;;4.70;99.90;;;;;;5058340;28;19921;-46
2022/01/11 03:35:39;;;;;;;;;;;4.70;99.90;;;;;;5058755;28;19920;-45
2022/01/11 03:38:07;;;;;;;;;;;4.80;99.90;;;;;;5057917;28;19909;-47
2022/01/11 03:40:32;;;;;;;;;;;4.80;99.90;;;;;;5058609;28;20010;-45
2022/01/11 03:42:59;;;;;;;;;;;4.80;99.90;;;;;;5058403;28;19963;-47
2022/01/11 03:45:26;;;;;;;;;;;4.80;99.90;;;;;;5058362;28;19936;-47
2022/01/11 03:47:54;;;;;;;;;;;4.80;99.90;;;;;;5059187;28;19987;-45
2022/01/11 03:50:22;;;;;;;;;;;4.70;99.90;;;;;;5057478;28;19909;-48
2022/01/11 03:52:58;;;;;;;;;;;4.70;99.90;;;;;;5057350;28;19913;-45
2022/01/11 03:55:44;;;;;;;;;;;4.70;99.90;;;;;;5058136;28;19936;-48
2022/01/11 03:58:12;;;;;;;;;;;4.80;99.90;;;;;;5037653;28;19909;-47
2022/01/11 04:00:39;;;;;;;;;;;4.70;99.90;;;;;;5072048;28;19963;-48
2022/01/11 04:03:05;;;;;;;;;;;4.70;99.90;;;;;;5053995;28;19919;-46
2022/01/11 04:05:32;;;;;;;;;;;4.70;99.90;;;;;;5057689;28;19908;-46
2022/01/11 04:07:58;;;;;;;;;;;4.80;99.90;;;;;;5056590;28;19978;-49
2022/01/11 04:10:24;;;;;;;;;;;4.70;99.90;;;;;;5057596;28;19913;-47
2022/01/11 04:12:51;;;;;;;;;;;4.70;99.90;;;;;;5057550;28;20256;-45
2022/01/11 04:15:17;;;;;;;;;;;4.80;99.90;;;;;;5057174;28;19917;-47
2022/01/11 04:17:43;;;;;;;;;;;4.80;99.90;;;;;;5057299;28;19928;-47
2022/01/11 04:20:09;;;;;;;;;;;4.80;99.90;;;;;;5056974;28;19920;-48
2022/01/11 04:22:36;;;;;;;;;;;4.80;99.90;;;;;;5036163;28;19917;-47
2022/01/11 04:25:02;;;;;;;;;;;4.80;99.90;;;;;;5054872;28;19909;-47
2022/01/11 04:27:29;;;;;;;;;;;4.80;99.90;;;;;;5056142;28;19909;-48
2022/01/11 04:29:55;;;;;;;;;;;4.80;99.90;;;;;;5056738;28;19919;-49
2022/01/11 04:32:21;;;;;;;;;;;4.80;99.90;;;;;;5057390;28;20208;-48
2022/01/11 04:34:47;;;;;;;;;;;4.90;99.90;;;;;;5059663;28;20488;-47
2022/01/11 04:37:14;;;;;;;;;;;4.80;99.90;;;;;;5076615;28;20258;-46
2022/01/11 04:39:41;;;;;;;;;;;4.80;99.90;;;;;;5060335;28;19909;-46
2022/01/11 04:42:08;;;;;;;;;;;4.80;99.90;;;;;;5068426;28;19923;-47
2022/01/11 04:44:35;;;;;;;;;;;4.90;99.90;;;;;;5056973;28;19909;-46
2022/01/11 04:47:00;;;;;;;;;;;4.90;99.90;;;;;;5040409;28;19920;-49
2022/01/11 04:49:27;;;;;;;;;;;4.90;99.90;;;;;;5040359;28;19913;-46
2022/01/11 04:51:55;;;;;;;;;;;4.90;99.90;;;;;;5039658;28;19963;-45
2022/01/11 04:54:20;;;;;;;;;;;4.90;99.90;;;;;;5056957;28;20196;-48
2022/01/11 04:56:47;;;;;;;;;;;4.90;99.90;;;;;;5049764;28;20372;-45
2022/01/11 04:59:12;;;;;;;;;;;4.90;99.90;;;;;;5076360;28;20432;-45
2022/01/11 05:01:40;;;;;;;;;;;4.90;99.90;;;;;;5058499;28;19917;-45
2022/01/11 05:04:07;;;;;;;;;;;4.90;99.90;;;;;;5074522;28;20344;-48
2022/01/11 05:06:33;;;;;;;;;;;4.90;99.90;;;;;;5058720;28;19908;-48
2022/01/11 05:08:58;;;;;;;;;;;4.90;99.90;;;;;;5074222;28;19930;-48
2022/01/11 05:11:25;;;;;;;;;;;4.90;99.90;;;;;;5054357;28;19912;-49
2022/01/11 05:13:51;;;;;;;;;;;4.90;99.90;;;;;;5054436;28;19908;-47
2022/01/11 05:16:16;;;;;;;;;;;4.90;99.90;;;;;;5057256;28;19920;-51
2022/01/11 05:18:42;;;;;;;;;;;4.80;99.90;;;;;;5074372;28;19909;-49
2022/01/11 05:21:08;;;;;;;;;;;4.70;99.90;;;;;;5052508;28;20007;-45
2022/01/11 05:23:34;;;;;;;;;;;4.60;99.90;;;;;;5053553;28;20336;-46
2022/01/11 05:26:00;;;;;;;;;;;4.60;99.90;;;;;;5057612;28;19919;-46
2022/01/11 05:28:25;;;;;;;;;;;4.60;99.90;;;;;;5090306;28;19908;-46
2022/01/11 05:30:51;;;;;;;;;;;4.60;99.90;;;;;;5073876;28;19935;-47
2022/01/11 05:33:16;;;;;;;;;;;4.60;99.90;;;;;;5070132;28;19927;-46
2022/01/11 05:35:42;;;;;;;;;;;4.70;99.90;;;;;;5071893;28;19908;-47
2022/01/11 05:38:08;;;;;;;;;;;4.70;99.90;;;;;;5070347;28;20283;-46
2022/01/11 05:40:33;;;;;;;;;;;4.70;99.90;;;;;;5070301;28;20008;-46
2022/01/11 05:42:59;;;;;;;;;;;4.80;99.90;;;;;;5071335;28;19965;-47
2022/01/11 05:45:24;;;;;;;;;;;4.80;99.90;;;;;;5071524;28;19912;-47
2022/01/11 05:47:52;;;;;;;;;;;4.80;99.90;;;;;;5070191;28;19917;-49
2022/01/11 05:50:19;;;;;;;;;;;4.80;99.90;;;;;;5069539;28;19908;-48
2022/01/11 05:52:45;;;;;;;;;;;4.70;99.90;;;;;;5070554;28;19913;-46
2022/01/11 05:55:11;;;;;;;;;;;4.80;99.90;;;;;;5071829;28;19969;-48
2022/01/11 05:57:37;;;;;;;;;;;4.80;99.90;;;;;;5054440;28;20197;-47
2022/01/11 06:00:05;;;;;;;;;;;4.80;99.90;;;;;;5051544;28;20011;-48
2022/01/11 06:02:30;;;;;;;;;;;4.80;99.90;;;;;;5051568;28;19987;-47
2022/01/11 06:04:55;;;;;;;;;;;4.80;99.90;;;;;;5051823;28;20375;-47
2022/01/11 06:07:21;;;;;;;;;;;4.80;99.90;;;;;;5049772;28;19909;-47
2022/01/11 06:09:46;;;;;;;;;;;4.80;99.90;;;;;;5050045;28;20225;-48
2022/01/11 06:12:12;;;;;;;;;;;4.90;99.90;;;;;;5049064;28;19927;-47
2022/01/11 06:14:38;;;;;;;;;;;4.80;99.90;;;;;;5049663;28;19971;-46
2022/01/11 06:17:03;;;;;;;;;;;4.80;99.90;;;;;;5046523;28;19917;-46
2022/01/11 06:19:31;;;;;;;;;;;4.80;99.90;;;;;;5046125;28;19909;-47
2022/01/11 06:21:57;;;;;;;;;;;4.90;99.90;;;;;;5049778;28;20053;-46
2022/01/11 06:24:22;;;;;;;;;;;4.90;99.90;;;;;;5051092;28;19944;-47
2022/01/11 06:26:48;;;;;;;;;;;4.90;99.90;;;;;;5052368;28;20058;-46
2022/01/11 06:29:13;;;;;;;;;;;4.90;99.90;;;;;;5052729;28;19974;-47
2022/01/11 06:31:39;;;;;;;;;;;4.90;99.90;;;;;;5052195;28;20152;-46
2022/01/11 06:34:04;;;;;;;;;;;4.90;99.90;;;;;;5054352;28;20139;-47
2022/01/11 06:36:30;;;;;;;;;;;4.90;99.90;;;;;;5054330;28;19909;-47
2022/01/11 06:38:56;;;;;;;;;;;4.90;99.90;;;;;;5053084;28;19908;-46
2022/01/11 06:41:21;;;;;;;;;;;4.80;99.90;;;;;;5051571;28;19913;-47
2022/01/11 06:43:47;;;;;;;;;;;4.80;99.90;;;;;;5052522;28;19909;-47
2022/01/11 06:46:13;;;;;;;;;;;4.70;99.90;;;;;;5052118;28;19924;-48
2022/01/11 06:48:39;;;;;;;;;;;4.60;99.90;;;;;;5051913;28;20148;-49
2022/01/11 06:51:04;;;;;;;;;;;4.60;99.90;;;;;;5052690;28;19908;-47
2022/01/11 06:53:31;;;;;;;;;;;4.60;99.90;;;;;;5052402;28;19915;-49
2022/01/11 06:55:56;;;;;;;;;;;4.60;99.90;;;;;;5056539;28;19916;-50
2022/01/11 06:58:22;;;;;;;;;;;4.60;99.90;;;;;;5071598;28;19993;-48
2022/01/11 07:00:48;;;;;;;;;;;4.50;99.90;;;;;;5071527;28;20246;-48
2022/01/11 07:03:18;;;;;;;;;;;4.60;99.90;;;;;;5052696;28;19920;-46
2022/01/11 07:05:44;;;;;;;;;;;4.60;99.90;;;;;;5068537;28;20139;-50
2022/01/11 07:08:10;;;;;;;;;;;4.60;99.90;;;;;;5069915;28;19946;-51
2022/01/11 07:10:37;;;;;;;;;;;4.50;99.90;;;;;;5062009;28;20008;-48
2022/01/11 07:13:03;;;;;;;;;;;4.50;99.90;;;;;;5049797;28;20051;-46
2022/01/11 07:15:29;;;;;;;;;;;4.50;99.90;;;;;;5049803;28;20012;-46
2022/01/11 07:17:55;;;;;;;;;;;4.50;99.90;;;;;;5048989;28;19916;-47
2022/01/11 07:20:20;;;;;;;;;;;4.50;99.90;;;;;;5050108;28;19909;-46
2022/01/11 07:22:46;;;;;;;;;;;4.50;99.90;;;;;;5050602;28;20397;-51
2022/01/11 07:25:12;;;;;;;;;;;4.50;99.90;;;;;;5048107;28;19908;-46
2022/01/11 07:27:37;;;;;;;;;;;4.60;99.90;;;;;;5066323;28;19908;-48
2022/01/11 07:30:04;;;;;;;;;;;4.50;99.90;;;;;;5067842;28;20015;-49
2022/01/11 07:32:31;;;;;;;;;;;4.60;99.90;;;;;;5069928;28;19978;-49
2022/01/11 07:34:59;;;;;;;;;;;4.60;99.90;;;;;;5071211;28;20410;-47
2022/01/11 07:37:25;;;;;;;;;;;4.60;99.90;;;;;;5072088;28;19912;-48
2022/01/11 07:39:51;;;;;;;;;;;4.60;99.90;;;;;;5073737;28;20281;-48
2022/01/11 07:42:16;;;;;;;;;;;4.70;99.90;;;;;;5072394;28;19912;-49
2022/01/11 07:44:43;;;;;;;;;;;4.60;99.90;;;;;;5070779;28;20257;-47
2022/01/11 07:47:08;;;;;;;;;;;4.60;99.90;;;;;;5089650;28;19916;-48
2022/01/11 07:49:34;;;;;;;;;;;4.40;99.90;;;;;;5069758;28;19969;-46
2022/01/11 07:52:00;;;;;;;;;;;4.30;99.90;;;;;;5071293;28;19912;-46
2022/01/11 07:54:25;;;;;;;;;;;4.20;99.90;;;;;;5087798;28;19969;-48
2022/01/11 07:56:51;;;;;;;;;;;4.20;99.90;;;;;;5058782;28;20407;-47
2022/01/11 07:59:16;;;;;;;;;;;4.30;99.90;;;;;;5051447;28;20247;-45
2022/01/11 08:01:42;;;;;;;;;;;4.20;99.90;;;;;;5052834;28;19927;-48
2022/01/11 08:04:07;;;;;;;;;;;4.20;99.90;;;;;;5070812;28;19909;-47
2022/01/11 08:06:33;;;;;;;;;;;4.30;99.90;;;;;;5069288;28;20251;-51
2022/01/11 08:09:02;;;;;;;;;;;4.20;99.90;;;;;;5052450;28;19927;-46
2022/01/11 08:11:28;;;;;;;;;;;4.10;99.90;;;;;;5052766;28;20012;-46
2022/01/11 08:13:53;;;;;;;;;;;4.00;99.90;;;;;;5068875;28;19963;-47
2022/01/11 08:16:18;;;;;;;;;;;3.80;99.90;;;;;;5070547;28;19916;-45
2022/01/11 08:18:44;;;;;;;;;;;3.80;99.90;;;;;;5053632;28;19958;-46
2022/01/11 08:21:09;;;;;;;;;;;3.90;99.90;;;;;;5054313;28;19908;-50
2022/01/11 08:23:35;;;;;;;;;;;4.00;99.90;;;;;;5071286;28;19908;-46
2022/01/11 08:26:00;;;;;;;;;;;3.90;99.90;;;;;;5044867;28;19916;-46
2022/01/11 08:28:26;;;;;;;;;;;4.00;99.90;;;;;;5031412;28;20591;-47
2022/01/11 08:30:52;;;;;;;;;;;4.00;99.90;;;;;;5033563;28;19932;-45
2022/01/11 08:33:18;;;;;;;;;;;4.00;99.90;;;;;;5029927;28;19921;-45
2022/01/11 08:35:43;;;;;;;;;;;4.00;99.90;;;;;;5033082;28;20337;-46
2022/01/11 08:38:09;;;;;;;;;;;4.10;99.90;;;;;;5032948;28;20121;-45
2022/01/11 08:40:35;;;;;;;;;;;4.20;99.90;;;;;;5032656;28;19909;-46
2022/01/11 08:43:03;;;;;;;;;;;4.30;99.90;;;;;;5032184;28;20282;-46
2022/01/11 08:45:29;;;;;;;;;;;4.30;99.90;;;;;;5048376;28;19913;-46
2022/01/11 08:47:55;;;;;;;;;;;4.30;99.90;;;;;;5031843;28;20368;-51
2022/01/11 08:50:20;;;;;;;;;;;4.30;99.90;;;;;;5028366;28;19920;-50
2022/01/11 08:52:46;;;;;;;;;;;4.30;99.90;;;;;;5030061;28;20391;-48
2022/01/11 08:55:12;;;;;;;;;;;4.30;99.90;;;;;;5038702;28;19912;-45
2022/01/11 08:57:38;;;;;;;;;;;4.40;99.90;;;;;;5066896;28;19920;-47
2022/01/11 09:00:06;;;;;;;;;;;4.40;99.90;;;;;;5070445;28;19968;-46
2022/01/11 09:02:35;;;;;;;;;;;4.40;99.90;;;;;;5070268;28;19916;-47
2022/01/11 09:05:01;;;;;;;;;;;4.40;99.90;;;;;;5069166;28;19908;-46
2022/01/11 09:07:26;;;;;;;;;;;4.30;99.90;;;;;;5102149;28;19909;-50
2022/01/11 09:09:52;;;;;;;;;;;4.30;99.90;;;;;;5070490;28;20158;-48
2022/01/11 09:12:19;;;;;;;;;;;4.40;99.90;;;;;;5071085;28;19928;-47
2022/01/11 09:14:44;;;;;;;;;;;4.40;99.90;;;;;;5069071;28;19962;-50
2022/01/11 09:17:10;;;;;;;;;;;4.40;99.90;;;;;;5067508;28;19925;-47
2022/01/11 09:19:36;;;;;;;;;;;4.50;99.90;;;;;;5069631;28;20405;-50
2022/01/11 09:22:02;;;;;;;;;;;4.50;99.90;;;;;;5072234;28;20329;-45
2022/01/11 09:24:30;;;;;;;;;;;4.40;99.90;;;;;;5070719;28;19920;-47
2022/01/11 09:26:58;;;;;;;;;;;4.50;99.90;;;;;;5057286;28;20207;-47
2022/01/11 09:29:24;;;;;;;;;;;4.50;99.90;;;;;;5048855;28;19909;-50
2022/01/11 09:31:49;;;;;;;;;;;4.50;99.90;;;;;;5049299;28;19931;-49
2022/01/11 09:34:15;;;;;;;;;;;4.50;99.90;;;;;;5049119;28;19951;-48
2022/01/11 09:36:41;;;;;;;;;;;4.60;99.90;;;;;;5050757;28;20055;-45
2022/01/11 09:39:07;;;;;;;;;;;4.60;99.90;;;;;;5048233;28;19912;-47
2022/01/11 09:41:33;;;;;;;;;;;4.70;99.90;;;;;;5048625;28;19909;-48
2022/01/11 09:43:59;;;;;;;;;;;4.70;99.90;;;;;;5049384;28;20003;-47
2022/01/11 09:46:25;;;;;;;;;;;4.80;99.90;;;;;;5046419;28;19999;-51
2022/01/11 09:48:50;;;;;;;;;;;4.90;99.90;;;;;;5045355;28;20042;-48
2022/01/11 09:51:16;;;;;;;;;;;4.80;99.90;;;;;;5046010;28;19943;-45
2022/01/11 09:53:43;;;;;;;;;;;4.60;99.90;;;;;;5048105;28;19908;-48
2022/01/11 09:56:10;;;;;;;;;;;4.50;99.90;;;;;;5044188;28;19917;-46
2022/01/11 09:58:37;;;;;;;;;;;4.40;99.90;;;;;;5031018;28;19909;-45
2022/01/11 10:01:04;;;;;;;;;;;4.50;99.90;;;;;;5033102;28;20410;-49
2022/01/11 10:03:31;;;;;;;;;;;4.50;99.90;;;;;;5065183;28;19991;-46
2022/01/11 10:06:12;;;;;;;;;;;4.50;99.90;;;;;;5048627;28;19956;-45
2022/01/11 10:08:38;;;;;;;;;;;4.60;99.90;;;;;;5048295;28;20255;-46
2022/01/11 10:11:05;;;;;;;;;;;4.60;99.90;;;;;;5033812;28;19932;-49
2022/01/11 10:13:39;;;;;;;;;;;4.60;99.90;;;;;;5033450;28;19924;-50
2022/01/11 10:16:24;;;;;;;;;;;4.80;99.90;;;;;;5032877;28;20404;-46
2022/01/11 10:18:52;;;;;;;;;;;5.10;99.90;;;;;;5035151;28;19909;-46
2022/01/11 10:21:35;;;;;;;;;;;4.90;99.90;;;;;;5034362;28;19909;-48
2022/01/11 10:24:19;;;;;;;;;;;4.80;99.90;;;;;;5034049;28;19916;-45
2022/01/11 10:26:46;;;;;;;;;;;4.90;99.90;;;;;;5065818;28;19913;-46
2022/01/11 10:29:36;;;;;;;;;;;5.10;99.90;;;;;;5033837;28;19929;-46
2022/01/11 10:32:12;;;;;;;;;;;5.10;99.90;;;;;;5034029;28;19963;-46
2022/01/11 10:34:39;;;;;;;;;;;5.20;99.90;;;;;;5049042;28;20310;-47
2022/01/11 10:37:06;;;;;;;;;;;5.30;99.90;;;;;;5031711;28;19915;-48
2022/01/11 10:39:44;;;;;;;26.03;11.47;;;5.40;99.90;;;;;;5031388;28;20042;-47
2022/01/11 10:42:33;;;;;;;19.73;10.27;;;5.30;99.90;;;;;;5011877;28;20764;-46
2022/01/11 10:45:11;;;;;;;17.93;8.90;;;5.10;99.90;;;;;;5029471;28;20695;-47
2022/01/11 10:47:46;;;;;;;17.03;9.70;;;5.10;99.90;;;;;;5030225;28;20638;-49
2022/01/11 10:50:28;;;;;;;15.20;10.50;;;5.00;99.90;;;;;;5030439;28;20166;-45
2022/01/11 10:53:20;;;;;;;18.07;9.67;;;5.00;99.90;;;;;;5031669;28;20259;-45
2022/01/11 10:56:07;;;;;;;17.70;9.87;;;4.80;99.90;;;;;;5032009;28;20182;-48
2022/01/11 10:58:36;;;;;;;18.53;10.20;;;5.00;99.90;;;;;;5053250;28;20258;-49
2022/01/11 11:01:05;;;;;;;16.80;9.77;;;5.00;99.90;;;;;;5054238;28;20268;-49
2022/01/11 11:03:34;;;;;;;18.53;9.63;;;5.00;99.90;;;;;;5054353;28;20487;-48
2022/01/11 11:06:10;;;;;;;20.20;10.10;;;5.10;99.90;;;;;;5052878;28;20185;-47
2022/01/11 11:08:47;;;;;;;18.43;9.93;;;5.00;99.90;;;;;;5057319;28;20157;-49
2022/01/11 11:11:20;;;;;;;21.23;12.55;;;5.10;99.90;;;;;;5055796;28;20480;-48
2022/01/11 11:13:51;;;;;;;20.13;11.88;;;5.20;99.90;;;;;;5056550;28;20389;-48
2022/01/11 11:16:28;;;;;;;18.05;10.75;;;5.10;99.90;;;;;;5054591;28;20532;-49
2022/01/11 11:18:59;;;;;;;19.13;11.60;;;5.20;99.90;;;;;;5038609;28;20809;-47
2022/01/11 11:21:38;;;;;;;19.57;11.70;;;5.20;99.90;;;;;;5053676;28;20385;-47
2022/01/11 11:24:14;;;;;;;18.08;11.07;;;5.10;99.90;;;;;;5054694;28;20381;-47
2022/01/11 11:26:46;;;;;;;22.73;11.50;;;5.20;99.90;;;;;;5042089;28;20716;-48
2022/01/11 11:29:14;;;;;;;19.40;10.80;;;5.20;99.90;;;;;;5032356;28;20961;-46
2022/01/11 11:31:41;;;;;;;13.48;9.18;;;5.30;99.90;;;;;;5032519;28;20409;-47
2022/01/11 11:34:10;;;;;;;18.00;11.60;;;5.50;99.90;;;;;;5045600;28;20553;-49
2022/01/11 11:36:39;;;;;;;19.00;10.90;;;5.50;99.90;;;;;;5052815;28;20389;-47
2022/01/11 11:39:11;;;;;;;19.77;10.35;;;5.70;99.90;;;;;;5052407;28;20789;-46
2022/01/11 11:41:42;;;;;;;15.70;9.73;;;6.00;99.90;;;;;;5054218;28;20381;-48
2022/01/11 11:44:13;;;;;;;15.60;10.18;;;6.00;99.90;;;;;;5053086;28;20423;-52
2022/01/11 11:46:53;;;;;;;17.30;10.73;;;5.40;99.90;;;;;;5052754;28;20848;-48
2022/01/11 11:49:55;;;;;;;20.27;10.93;;;5.40;99.90;;;;;;5052647;28;20455;-49
2022/01/11 11:52:37;;;;;;;17.50;10.48;;;5.30;99.90;;;;;;5052925;28;20401;-47
2022/01/11 11:55:11;;;;;;;18.60;10.07;;;5.20;99.90;;;;;;5051562;28;20666;-46
2022/01/11 11:57:43;;;;;;;12.90;9.18;;;5.20;99.90;;;;;;5069216;28;20387;-53
2022/01/11 12:00:20;;;;;;;15.03;9.80;;;5.40;99.90;;;;;;5071457;28;20426;-48
2022/01/11 12:02:55;;;;;;;16.00;10.50;;;5.50;99.90;;;;;;5072644;28;20410;-50
2022/01/11 12:05:36;;;;;;;14.73;9.50;;;5.50;99.90;;;;;;5073621;28;20395;-47
2022/01/11 12:08:32;;;;;;;17.67;10.25;;;5.40;99.90;;;;;;5072471;28;20380;-46
2022/01/11 12:11:10;;;;;;;15.65;9.05;;;5.30;99.90;;;;;;5073213;28;20790;-46
2022/01/11 12:13:41;;;;;;;17.17;10.00;;;5.20;99.90;;;;;;5053851;28;20705;-46
2022/01/11 12:16:27;;;;;;;18.42;9.52;;;5.20;99.90;;;;;;5051807;28;20397;-48
2022/01/11 12:19:04;;;;;;;17.42;10.00;;;5.10;99.90;;;;;;5044894;28;20405;-49
2022/01/11 12:21:40;;;;;;;14.20;9.65;;;4.90;99.90;;;;;;5051723;28;20400;-46
2022/01/11 12:24:06;;;;;;;15.52;9.63;;;5.00;99.90;;;;;;5035527;28;20491;-46
2022/01/11 12:26:35;;;;;;;15.95;9.82;;;5.20;99.90;;;;;;5052287;28;20496;-48
2022/01/11 12:29:13;;;;;;;15.15;9.15;;;5.50;99.90;;;;;;5053471;28;20658;-45
2022/01/11 12:32:02;;;;;;;17.33;8.90;;;5.40;99.90;;;;;;5054258;28;20421;-50
2022/01/11 12:34:47;;;;;;;15.00;8.65;;;5.30;99.90;;;;;;5070404;28;20415;-49
2022/01/11 12:37:34;;;;;;;14.98;8.93;;;5.50;99.90;;;;;;5054205;28;20423;-45
2022/01/11 12:40:19;;;;;;;18.05;9.23;;;5.40;99.90;;;;;;5054131;28;20494;-51
2022/01/11 12:43:05;;;;;;;14.13;8.48;;;5.50;99.90;;;;;;5070773;28;20403;-51
2022/01/11 12:45:50;;;;;;;;;;;5.50;99.90;;;;;;5055004;28;20055;-50
2022/01/11 12:48:38;;;;;;;;;;;5.60;99.90;;;;;;5055170;28;19920;-48
2022/01/11 12:51:05;;;;;;;;;;;5.70;99.90;;;;;;5053676;28;19912;-46
2022/01/11 12:53:32;;;;;;;;;;;5.80;99.90;;;;;;5052287;28;19927;-48
2022/01/11 12:55:58;;;;;;;;;;;5.80;99.90;;;;;;5050602;28;19919;-46
2022/01/11 12:58:25;;;;;;;;;;;5.90;99.90;;;;;;5069237;28;19909;-48
2022/01/11 13:00:52;;;;;;;;;;;6.00;99.90;;;;;;5054297;28;20265;-46
2022/01/11 13:03:19;;;;;;;;;;;6.00;99.90;;;;;;5054836;28;19909;-45
2022/01/11 13:05:45;;;;;;;;;;;6.00;99.90;;;;;;5053991;28;19908;-47
2022/01/11 13:08:25;;;;;;;;;;;6.10;99.90;;;;;;5036232;28;20312;-45
2022/01/11 13:10:50;;;;;;;;;;;6.10;99.90;;;;;;5055128;28;19908;-46
2022/01/11 13:13:22;;;;;;;;;;;6.10;99.90;;;;;;5055410;28;19924;-48
2022/01/11 13:15:51;;;;;;;;;;;6.10;99.90;;;;;;5088721;28;20290;-48
2022/01/11 13:18:23;;;;;;;;;;;6.00;99.90;;;;;;5072480;28;19912;-50
2022/01/11 13:20:59;;;;;;;;;;;6.10;99.90;;;;;;5054065;28;19909;-46
2022/01/11 13:23:45;;;;;;;;;;;6.30;99.90;;;;;;5053491;28;19908;-48
2022/01/11 13:26:21;;;;;;;;;;;6.50;99.90;;;;;;5054779;28;19908;-46
2022/01/11 13:28:53;;;;;;;;;;;6.40;99.90;;;;;;5052962;28;19966;-46
2022/01/11 13:31:29;;;;;;;;;;;6.30;99.90;;;;;;5052540;28;19993;-47
2022/01/11 13:34:16;;;;;;;;;;;6.40;99.90;;;;;;5049195;28;19931;-51
2022/01/11 13:36:47;;;;;;;;;;;6.60;99.90;;;;;;5050102;28;19958;-46
2022/01/11 13:39:21;;;;;;;;;;;6.60;99.90;;;;;;5053250;28;19908;-48
2022/01/11 13:41:48;;;;;;;;;;;6.80;99.90;;;;;;5050655;28;19917;-46
2022/01/11 13:44:17;;;;;;;;;;;7.00;99.90;;;;;;5031509;28;20023;-49
2022/01/11 13:46:44;;;;;;;;;;;7.10;99.90;;;;;;5047009;28;19963;-52
2022/01/11 13:49:16;;;;;;;;;;;7.00;99.90;;;;;;5048374;28;20482;-51
2022/01/11 13:51:44;;;;;;;;;;;7.00;99.90;;;;;;5032834;28;19913;-46
2022/01/11 13:54:10;;;;;;;;;;;7.20;99.90;;;;;;5050119;28;19923;-46
2022/01/11 13:56:41;;;;;;;;;;;7.30;99.90;;;;;;5050989;28;19904;-47
2022/01/11 13:59:06;;;;;;;;;;;6.80;99.90;;;;;;5050956;28;19952;-48
2022/01/11 14:01:33;;;;;;;;;;;6.40;99.90;;;;;;5052164;28;19955;-47
2022/01/11 14:04:14;;;;;;;;;;;6.20;99.90;;;;;;5051433;28;19996;-47
2022/01/11 14:06:44;;;;;;;;;;;6.10;99.90;;;;;;5050794;28;19905;-44
2022/01/11 14:09:17;;;;;;;;;;;6.00;99.90;;;;;;5050517;28;19915;-46
2022/01/11 14:12:03;;;;;;;;;;;5.80;99.90;;;;;;5050668;28;19909;-44
2022/01/11 14:14:30;;;;;;;;;;;5.70;99.90;;;;;;5050374;28;19970;-46
2022/01/11 14:16:56;;;;;;;;;;;5.80;99.90;;;;;;5048204;28;20004;-46
2022/01/11 14:19:23;;;;;;;;;;;5.80;99.90;;;;;;5048735;28;20018;-44
2022/01/11 14:21:48;;;;;;;;;;;5.80;99.90;;;;;;5044287;28;19967;-46
2022/01/11 14:24:14;;;;;;;;;;;5.80;99.90;;;;;;5043695;28;19904;-47
2022/01/11 14:26:39;;;;;;;;;;;5.80;99.90;;;;;;5044845;28;19904;-48